Time;durP1;ratioP1;P1;durP2;ratioP2;P2;SDS_P1;SDS_P2;PMS_P1;PMS_P2;Temp;Humidity;BMP_temperature;BMP_pressure;BME280_temperature;BME280_humidity;BME280_pressure;Samples;Min_cycle;Max_cycle;Signal;HPM_P1;HPM_P2
2022/09/26 00:01:22;;;;;;;2.43;2.03;;;;;;;;;;5065066;28;20187;-54
2022/09/26 00:03:52;;;;;;;2.97;2.40;;;;;;;;;;5065883;28;20298;-54
2022/09/26 00:06:20;;;;;;;2.47;2.10;;;;;;;;;;5058001;28;20183;-55
2022/09/26 00:08:47;;;;;;;2.53;2.20;;;;;;;;;;5068079;28;20180;-54
2022/09/26 00:11:14;;;;;;;3.20;2.57;;;;;;;;;;5067645;28;20235;-54
2022/09/26 00:13:40;;;;;;;2.63;2.43;;;;;;;;;;5068460;28;20222;-54
2022/09/26 00:16:07;;;;;;;2.70;2.50;;;;;;;;;;5068116;28;20550;-55
2022/09/26 00:18:33;;;;;;;3.40;2.43;;;;;;;;;;5059948;28;20191;-54
2022/09/26 00:21:03;;;;;;;2.47;2.20;;;;;;;;;;5068451;28;20180;-54
2022/09/26 00:23:30;;;;;;;2.70;2.50;;;;;;;;;;5050542;28;20262;-54
2022/09/26 00:25:57;;;;;;;2.60;2.40;;;;;;;;;;5050021;28;20220;-55
2022/09/26 00:28:24;;;;;;;2.20;2.00;;;;;;;;;;5065957;28;20596;-54
2022/09/26 00:30:50;;;;;;;3.77;2.23;;;;;;;;;;5065212;28;20571;-55
2022/09/26 00:33:16;;;;;;;3.70;2.40;;;;;;;;;;5064124;28;20658;-55
2022/09/26 00:35:53;;;;;;;2.70;2.50;;;;;;;;;;5035188;28;20196;-55
2022/09/26 00:38:19;;;;;;;3.87;2.43;;;;;;;;;;5065722;28;20208;-54
2022/09/26 00:40:45;;;;;;;2.57;2.37;;;;;;;;;;5067235;28;20726;-54
2022/09/26 00:43:30;;;;;;;2.50;2.30;;;;;;;;;;5052982;28;20218;-54
2022/09/26 00:45:59;;;;;;;3.83;2.60;;;;;;;;;;5068711;28;20828;-54
2022/09/26 00:48:25;;;;;;;2.50;2.30;;;;;;;;;;5066323;28;20241;-54
2022/09/26 00:50:52;;;;;;;2.40;2.20;;;;;;;;;;5062887;28;20683;-55
2022/09/26 00:53:19;;;;;;;2.23;1.97;;;;;;;;;;5067283;28;20646;-54
2022/09/26 00:55:47;;;;;;;2.43;2.23;;;;;;;;;;5067578;28;20711;-53
2022/09/26 00:58:20;;;;;;;3.03;2.07;;;;;;;;;;5066345;28;20517;-54
2022/09/26 01:00:47;;;;;;;2.50;2.23;;;;;;;;;;5065017;28;20199;-54
2022/09/26 01:03:15;;;;;;;2.47;2.27;;;;;;;;;;5066366;28;20592;-55
2022/09/26 01:05:42;;;;;;;2.17;1.97;;;;;;;;;;5064686;28;20215;-54
2022/09/26 01:08:08;;;;;;;2.40;2.20;;;;;;;;;;5063400;28;20220;-55
2022/09/26 01:10:35;;;;;;;2.27;2.00;;;;;;;;;;5064240;28;20180;-54
2022/09/26 01:13:02;;;;;;;2.40;2.20;;;;;;;;;;5067299;28;20658;-54
2022/09/26 01:15:28;;;;;;;2.30;2.10;;;;;;;;;;5067091;28;20180;-55
2022/09/26 01:17:55;;;;;;;2.70;2.30;;;;;;;;;;5063504;28;20195;-54
2022/09/26 01:20:36;;;;;;;2.47;2.27;;;;;;;;;;5065439;28;20543;-53
2022/09/26 01:23:02;;;;;;;3.70;2.10;;;;;;;;;;5063657;28;20251;-54
2022/09/26 01:25:47;;;;;;;2.60;2.40;;;;;;;;;;5060650;28;20583;-54
2022/09/26 01:28:27;;;;;;;2.23;1.90;;;;;;;;;;5067538;28;20630;-55
2022/09/26 01:31:06;;;;;;;3.17;2.37;;;;;;;;;;5049945;28;20661;-55
2022/09/26 01:33:32;;;;;;;2.37;2.20;;;;;;;;;;5065089;28;20172;-54
2022/09/26 01:36:38;;;;;;;2.67;2.47;;;;;;;;;;5066614;28;20664;-55
2022/09/26 01:39:13;;;;;;;2.03;1.93;;;;;;;;;;5000918;28;20182;-55
2022/09/26 01:41:47;;;;;;;2.40;2.20;;;;;;;;;;4997460;28;20581;-55
2022/09/26 01:44:32;;;;;;;2.70;2.50;;;;;;;;;;5034328;28;20211;-55
2022/09/26 01:47:01;;;;;;;2.30;2.10;;;;;;;;;;5069584;28;20176;-55
2022/09/26 01:49:37;;;;;;;2.13;2.00;;;;;;;;;;5070795;28;20211;-55
2022/09/26 01:52:29;;;;;;;2.30;2.10;;;;;;;;;;5064673;28;20172;-54
2022/09/26 01:54:55;;;;;;;2.37;2.10;;;;;;;;;;5067474;28;20196;-55
2022/09/26 01:57:40;;;;;;;2.50;2.30;;;;;;;;;;5070059;28;20500;-55
2022/09/26 02:00:10;;;;;;;4.30;2.40;;;;;;;;;;5060204;28;20959;-55
2022/09/26 02:02:39;;;;;;;3.37;2.37;;;;;;;;;;5064153;28;20188;-54
2022/09/26 02:05:08;;;;;;;2.27;2.07;;;;;;;;;;5051415;28;20235;-55
2022/09/26 02:07:43;;;;;;;2.60;2.40;;;;;;;;;;5069494;28;20221;-55
2022/09/26 02:10:12;;;;;;;3.37;2.50;;;;;;;;;;5070457;28;20163;-55
2022/09/26 02:12:40;;;;;;;3.63;2.40;;;;;;;;;;5054242;28;20200;-54
2022/09/26 02:15:10;;;;;;;2.40;2.20;;;;;;;;;;5054932;28;20191;-55
2022/09/26 02:17:40;;;;;;;2.77;2.57;;;;;;;;;;5057229;28;20235;-55
2022/09/26 02:20:10;;;;;;;2.40;2.20;;;;;;;;;;5068223;28;20177;-55
2022/09/26 02:22:37;;;;;;;3.10;2.37;;;;;;;;;;5069274;28;20632;-55
2022/09/26 02:25:03;;;;;;;4.17;2.60;;;;;;;;;;5067364;28;20196;-54
2022/09/26 02:27:29;;;;;;;2.73;2.23;;;;;;;;;;5051942;28;20184;-54
2022/09/26 02:29:56;;;;;;;3.37;2.40;;;;;;;;;;5070576;28;20168;-54
2022/09/26 02:32:26;;;;;;;2.90;2.60;;;;;;;;;;5068254;28;20223;-54
2022/09/26 02:34:53;;;;;;;2.67;2.47;;;;;;;;;;5059109;28;20195;-54
2022/09/26 02:37:20;;;;;;;2.50;2.30;;;;;;;;;;5070200;28;20212;-55
2022/09/26 02:39:47;;;;;;;3.37;2.57;;;;;;;;;;5069222;28;20185;-54
2022/09/26 02:42:25;;;;;;;3.10;2.77;;;;;;;;;;5070530;28;20218;-54
2022/09/26 02:45:09;;;;;;;2.97;2.67;;;;;;;;;;5069814;28;20219;-54
2022/09/26 02:47:44;;;;;;;2.53;2.33;;;;;;;;;;5052627;28;20177;-54
2022/09/26 02:50:30;;;;;;;2.70;2.50;;;;;;;;;;5051007;28;20516;-55
2022/09/26 02:53:15;;;;;;;2.40;2.20;;;;;;;;;;5055812;28;20191;-55
2022/09/26 02:55:44;;;;;;;2.60;2.40;;;;;;;;;;5069271;28;20184;-54
2022/09/26 02:58:16;;;;;;;3.00;2.80;;;;;;;;;;5069850;28;20211;-54
2022/09/26 03:01:09;;;;;;;3.97;2.07;;;;;;;;;;5052734;28;20235;-54
2022/09/26 03:03:39;;;;;;;2.87;2.57;;;;;;;;;;5028822;28;20709;-54
2022/09/26 03:06:07;;;;;;;2.77;2.57;;;;;;;;;;5049276;28;20222;-54
2022/09/26 03:08:37;;;;;;;3.10;2.87;;;;;;;;;;5058145;28;20565;-54
2022/09/26 03:11:04;;;;;;;3.20;2.53;;;;;;;;;;5068295;28;20639;-54
2022/09/26 03:13:34;;;;;;;2.73;2.50;;;;;;;;;;5067069;28;20187;-55
2022/09/26 03:16:00;;;;;;;3.30;2.70;;;;;;;;;;5069978;28;20218;-55
2022/09/26 03:18:29;;;;;;;4.40;3.10;;;;;;;;;;5051079;28;20177;-54
2022/09/26 03:20:55;;;;;;;2.70;2.50;;;;;;;;;;5058112;28;20208;-55
2022/09/26 03:23:24;;;;;;;3.63;3.13;;;;;;;;;;5068963;28;20268;-55
2022/09/26 03:25:59;;;;;;;3.27;2.97;;;;;;;;;;5064682;28;20564;-55
2022/09/26 03:28:25;;;;;;;3.03;2.83;;;;;;;;;;5052527;28;20587;-55
2022/09/26 03:30:51;;;;;;;4.40;3.10;;;;;;;;;;5067958;28;20481;-55
2022/09/26 03:33:18;;;;;;;4.33;3.93;;;;;;;;;;5050024;28;20176;-54
2022/09/26 03:35:44;;;;;;;3.63;2.67;;;;;;;;;;5058617;28;20650;-54
2022/09/26 03:38:10;;;;;;;2.60;2.37;;;;;;;;;;5068306;28;20200;-55
2022/09/26 03:40:36;;;;;;;3.80;3.10;;;;;;;;;;5053556;28;20279;-54
2022/09/26 03:43:02;;;;;;;3.20;2.90;;;;;;;;;;5053144;28;20701;-54
2022/09/26 03:45:28;;;;;;;4.70;2.90;;;;;;;;;;5063991;28;20200;-54
2022/09/26 03:47:56;;;;;;;3.20;3.00;;;;;;;;;;5067775;28;20615;-55
2022/09/26 03:50:28;;;;;;;3.93;2.97;;;;;;;;;;5067793;28;20659;-54
2022/09/26 03:52:54;;;;;;;3.53;3.13;;;;;;;;;;5066605;28;20521;-54
2022/09/26 03:55:21;;;;;;;2.90;2.70;;;;;;;;;;5067552;28;20180;-54
2022/09/26 03:57:47;;;;;;;3.20;2.90;;;;;;;;;;5067215;28;20188;-54
2022/09/26 04:00:13;;;;;;;3.27;3.00;;;;;;;;;;5052220;28;20271;-54
2022/09/26 04:02:39;;;;;;;3.23;2.87;;;;;;;;;;5067102;28;20289;-54
2022/09/26 04:05:05;;;;;;;3.23;3.03;;;;;;;;;;5060911;28;20204;-55
2022/09/26 04:07:31;;;;;;;3.40;3.07;;;;;;;;;;5061910;28;20168;-55
2022/09/26 04:09:57;;;;;;;3.00;2.70;;;;;;;;;;5074283;28;20646;-54
2022/09/26 04:12:24;;;;;;;3.83;2.87;;;;;;;;;;5057386;28;20175;-54
2022/09/26 04:14:50;;;;;;;3.60;3.20;;;;;;;;;;5056531;28;20206;-54
2022/09/26 04:17:17;;;;;;;3.23;2.93;;;;;;;;;;5049740;28;20208;-53
2022/09/26 04:19:43;;;;;;;4.20;3.20;;;;;;;;;;5067230;28;20184;-54
2022/09/26 04:22:09;;;;;;;4.47;2.90;;;;;;;;;;5066240;28;20234;-54
2022/09/26 04:24:36;;;;;;;2.80;2.60;;;;;;;;;;5065613;28;20232;-54
2022/09/26 04:27:02;;;;;;;3.40;2.90;;;;;;;;;;5067690;28;20615;-54
2022/09/26 04:29:28;;;;;;;4.47;4.10;;;;;;;;;;5056263;28;20637;-54
2022/09/26 04:31:54;;;;;;;3.40;2.73;;;;;;;;;;5062134;28;20181;-54
2022/09/26 04:34:23;;;;;;;3.47;3.17;;;;;;;;;;5042932;28;20215;-54
2022/09/26 04:36:50;;;;;;;2.80;2.60;;;;;;;;;;5067778;28;20538;-54
2022/09/26 04:39:16;;;;;;;3.17;2.87;;;;;;;;;;5067744;28;20169;-54
2022/09/26 04:41:42;;;;;;;3.70;3.00;;;;;;;;;;5044062;28;20193;-54
2022/09/26 04:44:11;;;;;;;2.80;2.60;;;;;;;;;;5049553;28;20608;-54
2022/09/26 04:46:37;;;;;;;3.00;2.70;;;;;;;;;;5067078;28;20206;-54
2022/09/26 04:49:04;;;;;;;4.30;3.90;;;;;;;;;;5049002;28;20278;-54
2022/09/26 04:51:31;;;;;;;4.27;2.60;;;;;;;;;;5064619;28;20205;-54
2022/09/26 04:53:58;;;;;;;3.67;2.70;;;;;;;;;;5048443;28;20279;-54
2022/09/26 04:56:25;;;;;;;2.90;2.60;;;;;;;;;;5044563;28;20195;-54
2022/09/26 04:58:53;;;;;;;2.93;2.60;;;;;;;;;;5067188;28;20176;-54
2022/09/26 05:01:20;;;;;;;3.30;2.80;;;;;;;;;;5065561;28;20635;-54
2022/09/26 05:03:46;;;;;;;4.10;2.93;;;;;;;;;;5064424;28;20185;-54
2022/09/26 05:06:13;;;;;;;9.73;4.13;;;;;;;;;;5064506;28;20267;-54
2022/09/26 05:08:41;;;;;;;5.73;3.03;;;;;;;;;;5067443;28;20176;-54
2022/09/26 05:11:08;;;;;;;3.60;3.30;;;;;;;;;;5064151;28;20231;-53
2022/09/26 05:13:35;;;;;;;3.57;2.97;;;;;;;;;;5066196;28;20168;-54
2022/09/26 05:16:02;;;;;;;3.77;2.97;;;;;;;;;;5059040;28;20168;-54
2022/09/26 05:18:29;;;;;;;3.50;3.20;;;;;;;;;;5064430;28;20189;-54
2022/09/26 05:20:56;;;;;;;4.00;2.70;;;;;;;;;;5049266;28;20282;-54
2022/09/26 05:26:39;;;;;;;6.00;4.33;;;;;;;;;;5061541;28;20231;-55
2022/09/26 05:29:05;;;;;;;9.30;4.40;;;;;;;;;;5061296;28;20184;-54
2022/09/26 05:31:35;;;;;;;6.97;4.23;;;;;;;;;;5043084;28;20180;-54
2022/09/26 05:34:03;;;;;;;6.43;4.17;;;;;;;;;;5044244;28;20164;-55
2022/09/26 05:36:29;;;;;;;5.10;4.13;;;;;;;;;;5079301;28;20175;-54
2022/09/26 05:38:56;;;;;;;7.97;3.80;;;;;;;;;;5051274;28;20283;-54
2022/09/26 05:41:22;;;;;;;5.60;4.20;;;;;;;;;;5060531;28;20673;-55
2022/09/26 05:43:48;;;;;;;4.60;3.47;;;;;;;;;;5047790;28;20179;-55
2022/09/26 05:46:15;;;;;;;5.00;4.00;;;;;;;;;;5067448;28;20689;-55
2022/09/26 05:48:42;;;;;;;4.10;3.70;;;;;;;;;;5065239;28;20173;-54
2022/09/26 05:51:12;;;;;;;4.53;3.63;;;;;;;;;;5066828;28;20226;-54
2022/09/26 05:53:39;;;;;;;5.00;3.00;;;;;;;;;;5063544;28;20180;-55
2022/09/26 05:56:05;;;;;;;5.27;3.03;;;;;;;;;;5064653;28;20181;-55
2022/09/26 05:58:33;;;;;;;3.53;3.03;;;;;;;;;;5037798;28;20172;-55
2022/09/26 06:01:05;;;;;;;4.73;3.03;;;;;;;;;;5050711;28;20176;-54
2022/09/26 06:03:34;;;;;;;4.37;3.93;;;;;;;;;;5040676;28;20712;-54
2022/09/26 06:06:02;;;;;;;3.57;2.90;;;;;;;;;;5066223;28;20254;-54
2022/09/26 06:08:28;;;;;;;5.33;3.00;;;;;;;;;;5066027;28;20161;-55
2022/09/26 06:10:58;;;;;;;4.37;3.00;;;;;;;;;;5067316;28;20227;-55
2022/09/26 06:13:24;;;;;;;4.83;2.83;;;;;;;;;;5043508;28;20190;-54
2022/09/26 06:15:50;;;;;;;3.93;2.30;;;;;;;;;;5066362;28;20180;-55
2022/09/26 06:18:17;;;;;;;5.53;2.93;;;;;;;;;;5065979;28;20659;-54
2022/09/26 06:20:43;;;;;;;4.20;2.60;;;;;;;;;;5049403;28;20231;-55
2022/09/26 06:23:09;;;;;;;4.30;2.97;;;;;;;;;;5036185;28;20240;-55
2022/09/26 06:25:35;;;;;;;3.60;3.10;;;;;;;;;;5036399;28;20205;-54
2022/09/26 06:28:01;;;;;;;2.73;2.47;;;;;;;;;;5045780;28;20186;-55
2022/09/26 06:30:28;;;;;;;3.43;2.83;;;;;;;;;;5065367;28;20178;-55
2022/09/26 06:32:54;;;;;;;3.40;2.43;;;;;;;;;;5043094;28;20169;-55
2022/09/26 06:35:20;;;;;;;4.10;2.63;;;;;;;;;;5070560;28;20177;-54
2022/09/26 06:37:47;;;;;;;3.00;2.50;;;;;;;;;;5069961;28;20765;-55
2022/09/26 06:40:14;;;;;;;2.83;2.13;;;;;;;;;;5069342;28;20192;-53
2022/09/26 06:42:40;;;;;;;3.43;2.30;;;;;;;;;;5045924;28;20191;-54
2022/09/26 06:45:07;;;;;;;4.00;2.37;;;;;;;;;;5070061;28;20223;-55
2022/09/26 06:47:33;;;;;;;2.90;2.33;;;;;;;;;;5046912;28;20242;-54
2022/09/26 06:49:59;;;;;;;4.33;2.70;;;;;;;;;;5070979;28;20263;-54
2022/09/26 06:52:26;;;;;;;4.60;2.60;;;;;;;;;;5070077;28;20169;-54
2022/09/26 06:54:54;;;;;;;2.60;2.10;;;;;;;;;;5052201;28;20188;-55
2022/09/26 06:57:20;;;;;;;3.83;2.80;;;;;;;;;;5068780;28;20191;-54
2022/09/26 06:59:46;;;;;;;2.47;2.23;;;;;;;;;;5073738;28;20192;-53
2022/09/26 07:02:15;;;;;;;4.90;2.43;;;;;;;;;;5045961;28;20276;-54
2022/09/26 07:04:42;;;;;;;3.10;2.27;;;;;;;;;;5058089;28;20200;-59
2022/09/26 07:07:08;;;;;;;2.30;2.10;;;;;;;;;;5074410;28;20256;-54
2022/09/26 07:09:34;;;;;;;2.87;2.50;;;;;;;;;;5070313;28;20180;-54
2022/09/26 07:12:00;;;;;;;2.57;2.03;;;;;;;;;;5069576;28;20577;-54
2022/09/26 07:14:26;;;;;;;2.50;2.30;;;;;;;;;;5051347;28;20188;-54
2022/09/26 07:16:53;;;;;;;3.73;2.60;;;;;;;;;;5067751;28;20181;-54
2022/09/26 07:19:19;;;;;;;2.53;2.30;;;;;;;;;;5051225;28;20659;-54
2022/09/26 07:21:45;;;;;;;3.07;2.33;;;;;;;;;;5067670;28;20188;-54
2022/09/26 07:24:13;;;;;;;2.27;2.07;;;;;;;;;;5070006;28;20646;-54
2022/09/26 07:26:40;;;;;;;7.07;2.70;;;;;;;;;;5069810;28;20705;-55
2022/09/26 07:29:06;;;;;;;2.50;2.30;;;;;;;;;;5069374;28;20856;-54
2022/09/26 07:31:32;;;;;;;3.23;2.57;;;;;;;;;;5068576;28;20872;-54
2022/09/26 07:33:58;;;;;;;3.30;2.20;;;;;;;;;;5066427;28;20191;-53
2022/09/26 07:36:24;;;;;;;3.40;2.60;;;;;;;;;;5069242;28;20630;-55
2022/09/26 07:38:53;;;;;;;3.80;2.57;;;;;;;;;;5052788;28;20334;-54
2022/09/26 07:41:19;;;;;;;3.60;2.30;;;;;;;;;;5042263;28;20545;-54
2022/09/26 07:43:45;;;;;;;3.47;2.47;;;;;;;;;;5068174;28;20794;-55
2022/09/26 07:51:44;;;;;;;4.00;2.40;;;;;;;;;;5068790;28;20307;-53
2022/09/26 07:54:10;;;;;;;4.20;2.23;;;;;;;;;;5069518;28;20272;-54
2022/09/26 07:56:37;;;;;;;3.10;2.80;;;;;;;;;;5042539;28;20743;-54
2022/09/26 07:59:04;;;;;;;2.77;2.57;;;;;;;;;;5051288;28;20191;-53
2022/09/26 08:01:30;;;;;;;4.10;2.40;;;;;;;;;;5069430;28;20156;-53
2022/09/26 08:03:57;;;;;;;4.07;2.50;;;;;;;;;;5067066;28;20421;-54
2022/09/26 08:06:26;;;;;;;3.63;2.27;;;;;;;;;;5074888;28;20631;-54
2022/09/26 08:08:53;;;;;;;3.20;2.40;;;;;;;;;;5076147;28;20487;-54
2022/09/26 08:11:20;;;;;;;2.63;2.20;;;;;;;;;;5068808;28;20177;-54
2022/09/26 08:13:47;;;;;;;4.17;2.47;;;;;;;;;;5052626;28;20703;-54
2022/09/26 08:16:22;;;;;;;4.30;2.20;;;;;;;;;;5061443;28;20176;-54
2022/09/26 08:18:51;;;;;;;4.13;2.40;;;;;;;;;;5067266;28;20623;-54
2022/09/26 08:21:17;;;;;;;2.10;1.90;;;;;;;;;;5069429;28;20615;-53
2022/09/26 08:23:44;;;;;;;3.23;2.30;;;;;;;;;;5068048;28;20259;-53
2022/09/26 08:26:11;;;;;;;5.40;2.30;;;;;;;;;;5051189;28;20224;-54
2022/09/26 08:28:37;;;;;;;4.53;2.13;;;;;;;;;;5049871;28;20184;-53
2022/09/26 08:31:04;;;;;;;2.17;2.03;;;;;;;;;;5037171;28;20184;-53
2022/09/26 08:33:34;;;;;;;3.83;2.03;;;;;;;;;;5049014;28;20172;-53
2022/09/26 08:36:04;;;;;;;4.77;2.00;;;;;;;;;;5068394;28;20169;-53
2022/09/26 08:38:30;;;;;;;5.00;2.20;;;;;;;;;;5067833;28;20204;-54
2022/09/26 08:41:02;;;;;;;2.27;2.07;;;;;;;;;;5067843;28;20185;-54
2022/09/26 08:43:41;;;;;;;2.00;1.80;;;;;;;;;;5044654;28;20191;-53
2022/09/26 08:46:41;;;;;;;2.67;2.00;;;;;;;;;;5055456;28;20594;-54
2022/09/26 08:49:28;;;;;;;5.03;2.10;;;;;;;;;;5053278;28;20173;-54
2022/09/26 08:52:00;;;;;;;2.53;1.80;;;;;;;;;;5051615;28;20179;-53
2022/09/26 08:54:38;;;;;;;2.53;2.33;;;;;;;;;;5055680;28;20516;-53
2022/09/26 08:57:06;;;;;;;2.03;1.80;;;;;;;;;;5050926;28;20293;-53
2022/09/26 08:59:39;;;;;;;3.73;2.10;;;;;;;;;;5051949;28;20603;-54
2022/09/26 09:02:10;;;;;;;5.00;2.10;;;;;;;;;;5043208;28;20185;-53
2022/09/26 09:04:46;;;;;;;2.60;2.40;;;;;;;;;;5037384;28;20208;-53
2022/09/26 09:07:22;;;;;;;3.17;1.93;;;;;;;;;;5049384;28;20548;-53
2022/09/26 09:09:49;;;;;;;1.73;1.63;;;;;;;;;;5047760;28;20573;-53
2022/09/26 09:12:33;;;;;;;2.30;2.10;;;;;;;;;;5055603;28;20183;-53
2022/09/26 09:15:00;;;;;;;2.20;1.87;;;;;;;;;;5055405;28;20177;-54
2022/09/26 09:17:41;;;;;;;1.70;1.60;;;;;;;;;;5070163;28;20184;-53
2022/09/26 09:20:10;;;;;;;3.37;2.77;;;;;;;;;;5055739;28;20211;-54
2022/09/26 09:22:49;;;;;;;3.30;2.10;;;;;;;;;;5064580;28;20216;-54
2022/09/26 09:25:23;;;;;;;2.07;1.70;;;;;;;;;;5050481;28;20487;-54
2022/09/26 09:28:04;;;;;;;2.00;1.80;;;;;;;;;;5059039;28;20231;-54
2022/09/26 09:30:46;;;;;;;3.50;1.70;;;;;;;;;;5060945;28;20205;-53
2022/09/26 09:33:21;;;;;;;3.77;1.70;;;;;;;;;;5040191;28;20702;-54
2022/09/26 09:35:53;;;;;;;3.87;2.57;;;;;;;;;;5056139;28;20237;-53
2022/09/26 09:38:21;;;;;;;3.53;2.20;;;;;;;;;;5047568;28;20765;-54
2022/09/26 09:40:51;;;;;;;2.20;2.00;;;;;;;;;;5034454;28;20192;-55
2022/09/26 09:43:32;;;;;;;4.33;2.00;;;;;;;;;;5041871;28;20180;-54
2022/09/26 09:46:03;;;;;;;2.93;2.00;;;;;;;;;;5067762;28;20196;-54
2022/09/26 09:48:30;;;;;;;1.87;1.77;;;;;;;;;;5039530;28;20677;-54
2022/09/26 09:51:15;;;;;;;5.17;2.30;;;;;;;;;;5056540;28;20251;-54
2022/09/26 09:53:59;;;;;;;2.10;1.90;;;;;;;;;;5047342;28;20267;-54
2022/09/26 09:56:31;;;;;;;2.20;2.00;;;;;;;;;;5057794;28;20254;-54
2022/09/26 09:58:57;;;;;;;2.83;2.27;;;;;;;;;;5064810;28;20655;-54
2022/09/26 10:01:30;;;;;;;2.37;2.13;;;;;;;;;;5068887;28;20172;-54
2022/09/26 10:04:02;;;;;;;2.33;2.13;;;;;;;;;;5046922;28;20561;-54
2022/09/26 10:06:30;;;;;;;2.67;2.30;;;;;;;;;;5052995;28;20608;-55
2022/09/26 10:08:56;;;;;;;2.37;1.80;;;;;;;;;;5070152;28;20177;-54
2022/09/26 10:11:28;;;;;;;3.30;2.47;;;;;;;;;;5066651;28;20169;-54
2022/09/26 10:14:00;;;;;;;2.63;2.10;;;;;;;;;;5042562;28;20188;-53
2022/09/26 10:16:27;;;;;;;2.73;1.83;;;;;;;;;;5052757;28;20295;-56
2022/09/26 10:19:02;;;;;;;2.67;2.23;;;;;;;;;;5032687;28;20184;-54
2022/09/26 10:21:39;;;;;;;3.60;1.90;;;;;;;;;;5050846;28;20192;-53
2022/09/26 10:24:07;;;;;;;2.80;2.43;;;;;;;;;;5066167;28;20200;-53
2022/09/26 10:26:34;;;;;;;3.30;2.13;;;;;;;;;;5037816;28;20220;-54
2022/09/26 10:29:04;;;;;;;5.10;2.43;;;;;;;;;;5037692;28;20180;-54
2022/09/26 10:31:43;;;;;;;2.17;1.90;;;;;;;;;;5053925;28;20174;-53
2022/09/26 10:34:23;;;;;;;2.63;1.93;;;;;;;;;;5045946;28;20183;-54
2022/09/26 10:36:49;;;;;;;4.37;1.97;;;;;;;;;;5066979;28;20180;-54
2022/09/26 10:42:02;;;;;;;2.73;2.20;;;;;;;;;;5069522;28;20231;-52
2022/09/26 10:44:35;;;;;;;2.73;2.43;;;;;;;;;;5042114;28;20199;-54
2022/09/26 10:47:07;;;;;;;3.70;1.87;;;;;;;;;;5062403;28;20171;-56
2022/09/26 10:49:51;;;;;;;3.70;2.43;;;;;;;;;;5059160;28;20230;-54
2022/09/26 10:52:22;;;;;;;3.73;2.00;;;;;;;;;;5063785;28;20220;-53
2022/09/26 10:55:06;;;;;;;2.47;1.97;;;;;;;;;;5068469;28;20184;-54
2022/09/26 10:57:44;;;;;;;2.20;2.00;;;;;;;;;;5057463;28;20282;-54
2022/09/26 11:00:31;;;;;;;2.90;2.33;;;;;;;;;;5041565;28;20189;-54
2022/09/26 11:02:57;;;;;;;3.07;1.90;;;;;;;;;;5052548;28;20196;-54
2022/09/26 11:08:10;;;;;;;3.63;2.53;;;;;;;;;;5056747;28;20422;-54
2022/09/26 11:10:41;;;;;;;2.70;2.10;;;;;;;;;;5064218;28;20181;-53
2022/09/26 11:13:20;;;;;;;2.50;2.13;;;;;;;;;;5065878;28;20168;-53
2022/09/26 11:15:59;;;;;;;2.90;2.20;;;;;;;;;;5071740;28;20239;-53
2022/09/26 11:18:38;;;;;;;2.37;2.17;;;;;;;;;;5059981;28;20176;-54
2022/09/26 11:21:10;;;;;;;3.23;2.40;;;;;;;;;;5045640;28;20210;-54
2022/09/26 11:23:45;;;;;;;2.77;2.10;;;;;;;;;;5058573;28;20185;-54
2022/09/26 11:26:52;;;;;;;2.37;2.10;;;;;;;;;;5062149;27;20200;-54
2022/09/26 11:29:37;;;;;;;3.13;2.23;;;;;;;;;;5011939;28;20195;-54
2022/09/26 11:32:04;;;;;;;2.33;2.13;;;;;;;;;;5067365;28;20195;-54
2022/09/26 11:34:34;;;;;;;3.30;2.20;;;;;;;;;;5051630;28;20701;-54
2022/09/26 11:37:38;;;;;;;3.03;1.90;;;;;;;;;;5043832;28;20751;-54
2022/09/26 11:40:22;;;;;;;3.07;2.30;;;;;;;;;;4984265;28;20586;-54
2022/09/26 11:42:51;;;;;;;2.30;2.10;;;;;;;;;;4980081;28;20546;-54
2022/09/26 11:45:31;;;;;;;3.13;2.10;;;;;;;;;;5037744;28;20266;-53
2022/09/26 11:48:00;;;;;;;2.30;2.10;;;;;;;;;;5045473;28;20459;-53
2022/09/26 11:50:40;;;;;;;2.53;2.03;;;;;;;;;;5069816;28;20172;-54
2022/09/26 11:53:14;;;;;;;2.50;2.30;;;;;;;;;;5048063;28;20611;-54
2022/09/26 11:55:56;;;;;;;2.80;2.10;;;;;;;;;;5065227;28;20716;-54
2022/09/26 11:58:32;;;;;;;3.07;2.27;;;;;;;;;;5078921;28;20183;-54
2022/09/26 12:01:09;;;;;;;3.30;2.30;;;;;;;;;;5037514;28;20181;-54
2022/09/26 12:03:55;;;;;;;2.20;2.03;;;;;;;;;;5049274;28;20629;-54
2022/09/26 12:06:21;;;;;;;2.63;2.30;;;;;;;;;;5026489;28;20203;-54
2022/09/26 12:09:06;;;;;;;4.37;2.10;;;;;;;;;;5047457;28;20225;-54
2022/09/26 12:11:48;;;;;;;1.80;1.67;;;;;;;;;;5041212;28;20177;-54
2022/09/26 12:14:24;;;;;;;2.63;2.00;;;;;;;;;;5056924;28;20168;-54
2022/09/26 12:16:50;;;;;;;3.00;2.20;;;;;;;;;;5047860;28;22260;-54
2022/09/26 12:19:24;;;;;;;2.40;2.20;;;;;;;;;;5045388;28;20292;-54
2022/09/26 12:22:28;;;;;;;2.90;2.20;;;;;;;;;;5067576;28;20175;-54
2022/09/26 12:25:06;;;;;;;2.23;2.03;;;;;;;;;;5059486;28;20557;-54
2022/09/26 12:27:35;;;;;;;1.97;1.73;;;;;;;;;;5055935;27;20305;-53
2022/09/26 12:30:04;;;;;;;3.80;2.10;;;;;;;;;;5062882;28;20185;-54
2022/09/26 12:32:46;;;;;;;3.80;2.10;;;;;;;;;;5045214;28;20173;-54
2022/09/26 12:35:17;;;;;;;2.17;1.77;;;;;;;;;;5062671;28;20173;-54
2022/09/26 12:37:58;;;;;;;2.00;1.80;;;;;;;;;;5065170;28;20200;-54
2022/09/26 12:40:39;;;;;;;2.40;2.20;;;;;;;;;;5066027;28;20680;-54
2022/09/26 12:43:12;;;;;;;3.03;1.77;;;;;;;;;;5044438;28;20255;-54
2022/09/26 12:45:48;;;;;;;4.67;1.90;;;;;;;;;;5058008;28;20674;-54
2022/09/26 12:48:21;;;;;;;2.47;1.90;;;;;;;;;;5061628;28;20172;-53
2022/09/26 12:50:59;;;;;;;2.43;1.90;;;;;;;;;;5054755;28;20176;-54
2022/09/26 12:53:46;;;;;;;2.30;2.10;;;;;;;;;;5062241;28;20438;-54
2022/09/26 12:56:32;;;;;;;89.60;13.10;;;;;;;;;;5043757;28;20261;-55
2022/09/26 12:59:03;;;;;;;53.87;8.27;;;;;;;;;;5066237;28;20550;-54
2022/09/26 13:01:37;;;;;;;50.37;8.27;;;;;;;;;;5046026;28;20249;-55
2022/09/26 13:04:21;;;;;;;22.83;4.97;;;;;;;;;;5052998;28;20184;-54
2022/09/26 13:06:57;;;;;;;18.83;6.00;;;;;;;;;;5056572;28;20185;-54
2022/09/26 13:09:32;;;;;;;23.40;6.07;;;;;;;;;;5063900;28;20541;-55
2022/09/26 13:12:17;;;;;;;26.20;5.30;;;;;;;;;;5053314;28;20279;-54
2022/09/26 13:15:02;;;;;;;25.70;4.97;;;;;;;;;;5060699;28;20176;-54
2022/09/26 13:17:31;;;;;;;18.20;5.07;;;;;;;;;;5050663;28;20736;-54
2022/09/26 13:20:20;;;;;;;21.53;4.13;;;;;;;;;;5043973;28;20291;-54
2022/09/26 13:22:50;;;;;;;17.30;4.70;;;;;;;;;;5052467;28;20199;-54
2022/09/26 13:25:19;;;;;;;15.83;4.30;;;;;;;;;;5061785;28;20200;-55
2022/09/26 13:28:05;;;;;;;6.47;3.67;;;;;;;;;;5043684;28;20217;-55
2022/09/26 13:30:36;;;;;;;5.20;2.60;;;;;;;;;;5049907;28;20710;-54
2022/09/26 13:33:25;;;;;;;5.37;2.63;;;;;;;;;;5039269;28;20172;-57
2022/09/26 13:35:52;;;;;;;5.67;2.43;;;;;;;;;;5042285;28;20184;-56
2022/09/26 13:38:36;;;;;;;8.93;2.63;;;;;;;;;;5063597;28;20199;-54
2022/09/26 13:41:21;;;;;;;6.73;2.80;;;;;;;;;;5065618;28;20254;-53
2022/09/26 13:44:04;;;;;;;3.70;2.23;;;;;;;;;;5064468;28;20698;-54
2022/09/26 13:46:38;;;;;;;2.90;2.10;;;;;;;;;;5060125;28;20177;-54
2022/09/26 13:49:23;;;;;;;4.60;2.92;;;;;;;;;;5060143;28;20444;-54
2022/09/26 13:52:10;;;;;;;6.10;2.93;;;;;;;;;;5062927;28;20180;-54
2022/09/26 13:54:43;;;;;;;5.07;2.40;;;;;;;;;;5038496;28;20249;-54
2022/09/26 13:57:42;;;;;;;5.03;2.70;;;;;;;;;;5048758;28;20191;-55
2022/09/26 14:00:25;;;;;;;3.63;3.10;;;;;;;;;;5016316;28;20212;-55
2022/09/26 14:03:14;;;;;;;4.40;2.77;;;;;;;;;;5042936;28;20239;-56
2022/09/26 14:05:43;;;;;;;5.37;3.53;;;;;;;;;;5069759;28;20281;-54
2022/09/26 14:11:18;;;;;;;6.53;3.20;;;;;;;;;;5059029;28;20192;-55
2022/09/26 14:13:45;;;;;;;6.37;3.10;;;;;;;;;;5057415;28;20184;-55
2022/09/26 14:16:27;;;;;;;4.70;2.97;;;;;;;;;;5062793;28;20472;-54
2022/09/26 14:18:59;;;;;;;3.97;3.03;;;;;;;;;;5038034;28;20952;-53
2022/09/26 14:21:27;;;;;;;3.40;3.10;;;;;;;;;;5056866;28;20649;-53
2022/09/26 14:24:29;;;;;;;4.43;2.73;;;;;;;;;;5046609;28;20239;-54
2022/09/26 14:27:04;;;;;;;2.57;2.37;;;;;;;;;;5020421;28;20342;-53
2022/09/26 14:29:35;;;;;;;3.67;2.57;;;;;;;;;;5027868;28;20215;-53
2022/09/26 14:32:04;;;;;;;2.77;2.43;;;;;;;;;;5060765;28;20181;-53
2022/09/26 14:34:34;;;;;;;6.57;2.63;;;;;;;;;;5063987;28;20184;-53
2022/09/26 14:37:02;;;;;;;2.90;2.43;;;;;;;;;;5048264;28;20197;-53
2022/09/26 14:39:34;;;;;;;3.23;2.90;;;;;;;;;;5060923;28;20177;-53
2022/09/26 14:42:15;;;;;;;3.67;2.70;;;;;;;;;;5044921;28;20539;-53
2022/09/26 14:44:47;;;;;;;4.57;2.67;;;;;;;;;;5059239;28;20200;-53
2022/09/26 14:47:16;;;;;;;3.20;2.90;;;;;;;;;;5064904;28;20631;-53
2022/09/26 14:49:43;;;;;;;5.30;2.53;;;;;;;;;;5066304;28;20200;-53
2022/09/26 14:52:16;;;;;;;3.03;2.73;;;;;;;;;;5041030;28;20181;-54
2022/09/26 14:54:42;;;;;;;6.70;3.30;;;;;;;;;;5061778;28;20203;-55
2022/09/26 14:57:19;;;;;;;5.00;2.80;;;;;;;;;;5066468;28;20191;-54
2022/09/26 14:59:45;;;;;;;5.17;2.90;;;;;;;;;;5047837;28;20298;-57
2022/09/26 15:02:14;;;;;;;3.90;2.67;;;;;;;;;;5047544;28;20558;-61
2022/09/26 15:04:42;;;;;;;3.97;2.63;;;;;;;;;;5068697;28;20204;-53
2022/09/26 15:07:14;;;;;;;3.30;2.80;;;;;;;;;;5042809;28;20580;-53
2022/09/26 15:09:40;;;;;;;4.13;2.60;;;;;;;;;;5054730;28;20174;-53
2022/09/26 15:12:25;;;;;;;2.97;2.37;;;;;;;;;;5064331;28;20181;-53
2022/09/26 15:15:00;;;;;;;2.77;2.50;;;;;;;;;;5062337;28;20607;-53
2022/09/26 15:17:35;;;;;;;4.87;2.63;;;;;;;;;;5063540;28;20678;-53
2022/09/26 15:20:05;;;;;;;4.97;2.73;;;;;;;;;;5042222;28;20188;-54
2022/09/26 15:22:31;;;;;;;3.30;2.83;;;;;;;;;;5067145;28;20624;-53
2022/09/26 15:25:08;;;;;;;2.90;2.60;;;;;;;;;;5072373;28;20281;-53
2022/09/26 15:27:34;;;;;;;4.93;2.70;;;;;;;;;;5056806;27;20224;-53